Eastpoint, FL (32328)

6:47 AM EDT on March 29, 2017 (GMT -0400)
Franklin County School WeatherSTEM | | Change Station
Active Advisory: Dense Fog Advisory

Elev 26 ft 29.77 °N, 84.82 °W | Updated 2 minutes ago

Fog
Fog
56.5 °F
Feels Like 56.5 °F
N
0.0
Wind Variable Wind from WNW

Today
High -- | Low -- °F
--% Chance of Precip.
Yesterday
High -- | Low -- °F
Precip. -- in
Pressure 29.98 in
Visibility 0.8 miles
Clouds
Dew Point 55 °F
Humidity 93%
Rainfall 0.00 in
Snow Depth Not available.
7:32 AM 7:56 PM
New Moon, 2% visible
SPECI KAAF 291033Z AUTO 00000KT 3/4SM BR VV002 14/14 A2998 RMK AO2 T01390139
Pressure 29.98 in
Visibility 0.8 miles
Clouds
Dew Point 55 °F
Humidity 93%
Rainfall 0.00 in
Snow Depth Not available.
7:32 AM 7:56 PM
New Moon, 2% visible
SPECI KAAF 291033Z AUTO 00000KT 3/4SM BR VV002 14/14 A2998 RMK AO2 T01390139

Get Your Daily Forecast Email!

Thanks for signing up!

Be on the lookout for a verification email in your inbox.

You'll start receiving severe weather alerts in your inbox..

×

10-Day Weather Forecast

Almanac

Astronomy

Mar. 29, 2017 Rise Set
Actual Time
Civil Twilight
Nautical Twilight
Astronomical Twilight
Moon
Length of Visible Light
Length of Day
Tomorrow will be .
, % of the Moon is Illuminated

Today's Extremes

State Highs State Lows

Community

WunderPhotos

Upload Photos

1,962,540 photos uploaded!

WunderBlog® & News

Nearby

Air Quality

  Air Quality AQ Index Pollutant
Not available.

Snow Depth

Station Depth Elevation

Earthquake Activity

City Distance Mag. Time & Date
Minimum magnitude displayed is 2.5.

Earthquake Activity

City Distance Mag. Time & Date
Minimum magnitude displayed is 2.5.

Coastal Water Temperatures

Place Temperature

Stations

Nearby Weather Stations

Station Location Temp. Windchill Dew Point Humidity Wind Precip. Elev Updated Type
                   

Watches & Warnings

Dense Fog Advisory
Issued: 5:26 AM CDT Mar. 29, 2017 – National Weather Service

... Dense fog advisory in effect until 10 am EDT /9 am CDT/ this
morning...

The National Weather Service in Tallahassee has issued a dense
fog advisory, which is in effect until 10 am EDT /9 am CDT/ this
morning.

* Visibility... a quarter of a mile or less.

* Impacts... hazardous driving conditions.

Precautionary/preparedness actions...

A dense fog advisory means visibilities will frequently be
reduced to less than one quarter mile. If driving... slow down...
use your low beam headlights... and leave plenty of distance ahead
of you.



Fournier